Terminal Aerodrome Forecast
Issued by NWS

Home | Current Version | Previous Version | Text Only | Print | Product List | Glossary On
Versions: 1 2 3 4 5 6 7 8 9 10 11 12 13 14 15 16 17 18 19 20 21 22 23 24 25 26
000
FTUS46 KMTR 222100 AAB
TAFSFO
TAF AMD
KSFO 222126Z 2221/2324 28012KT P6SM FEW010
     FM222300 30015G20KT P6SM FEW010
     FM231000 26004KT P6SM OVC010
     FM231800 30009KT P6SM FEW010=

USA.gov is the U.S. government's official web portal to all federal, state and local government web resources and services.